sensor_id;sensor_type;location;lat;lon;timestamp;temperature;humidity
35700;DHT22;21818;51.078;12.108;2023-04-25T00:02:20;14.80;67.70
35700;DHT22;21818;51.078;12.108;2023-04-25T00:04:46;14.90;67.60
35700;DHT22;21818;51.078;12.108;2023-04-25T00:07:14;14.80;67.60
35700;DHT22;21818;51.078;12.108;2023-04-25T00:09:39;14.80;67.70
35700;DHT22;21818;51.078;12.108;2023-04-25T00:12:06;14.90;67.60
35700;DHT22;21818;51.078;12.108;2023-04-25T00:14:31;14.90;67.70
35700;DHT22;21818;51.078;12.108;2023-04-25T00:16:58;14.90;67.60
35700;DHT22;21818;51.078;12.108;2023-04-25T00:19:25;14.90;67.50
35700;DHT22;21818;51.078;12.108;2023-04-25T00:21:52;14.90;67.30
35700;DHT22;21818;51.078;12.108;2023-04-25T00:24:19;14.80;67.60
35700;DHT22;21818;51.078;12.108;2023-04-25T00:26:44;14.80;67.70
35700;DHT22;21818;51.078;12.108;2023-04-25T00:29:10;14.80;67.80
35700;DHT22;21818;51.078;12.108;2023-04-25T00:31:36;14.90;67.60
35700;DHT22;21818;51.078;12.108;2023-04-25T00:34:01;14.90;67.60
35700;DHT22;21818;51.078;12.108;2023-04-25T00:36:27;14.80;67.50
35700;DHT22;21818;51.078;12.108;2023-04-25T00:38:53;14.80;67.40
35700;DHT22;21818;51.078;12.108;2023-04-25T00:41:20;14.80;67.30
35700;DHT22;21818;51.078;12.108;2023-04-25T00:43:46;14.70;67.50
35700;DHT22;21818;51.078;12.108;2023-04-25T00:46:13;14.80;67.50
35700;DHT22;21818;51.078;12.108;2023-04-25T00:48:38;14.70;67.30
35700;DHT22;21818;51.078;12.108;2023-04-25T00:51:04;14.60;67.40
35700;DHT22;21818;51.078;12.108;2023-04-25T00:53:30;14.60;67.70
35700;DHT22;21818;51.078;12.108;2023-04-25T00:55:57;14.60;68.00
35700;DHT22;21818;51.078;12.108;2023-04-25T00:58:23;14.60;68.30
35700;DHT22;21818;51.078;12.108;2023-04-25T01:00:50;14.50;68.30
35700;DHT22;21818;51.078;12.108;2023-04-25T01:03:18;14.50;68.50
35700;DHT22;21818;51.078;12.108;2023-04-25T01:05:47;14.50;68.50
35700;DHT22;21818;51.078;12.108;2023-04-25T01:08:13;14.40;68.60
35700;DHT22;21818;51.078;12.108;2023-04-25T01:10:40;14.40;68.60
35700;DHT22;21818;51.078;12.108;2023-04-25T01:13:06;14.30;68.60
35700;DHT22;21818;51.078;12.108;2023-04-25T01:15:32;14.30;68.80
35700;DHT22;21818;51.078;12.108;2023-04-25T01:17:58;14.20;68.70
35700;DHT22;21818;51.078;12.108;2023-04-25T01:20:26;14.20;69.00
35700;DHT22;21818;51.078;12.108;2023-04-25T01:22:53;14.20;69.10
35700;DHT22;21818;51.078;12.108;2023-04-25T01:25:21;14.20;69.40
35700;DHT22;21818;51.078;12.108;2023-04-25T01:27:46;14.30;69.60
35700;DHT22;21818;51.078;12.108;2023-04-25T01:30:13;14.20;69.60
35700;DHT22;21818;51.078;12.108;2023-04-25T01:32:38;14.20;69.70
35700;DHT22;21818;51.078;12.108;2023-04-25T01:35:06;14.20;69.80
35700;DHT22;21818;51.078;12.108;2023-04-25T01:37:38;14.10;69.70
35700;DHT22;21818;51.078;12.108;2023-04-25T01:40:05;14.10;70.00
35700;DHT22;21818;51.078;12.108;2023-04-25T01:42:32;14.10;70.00
35700;DHT22;21818;51.078;12.108;2023-04-25T01:44:58;14.10;69.90
35700;DHT22;21818;51.078;12.108;2023-04-25T01:47:24;14.10;69.80
35700;DHT22;21818;51.078;12.108;2023-04-25T01:49:49;14.00;69.90
35700;DHT22;21818;51.078;12.108;2023-04-25T01:52:15;14.00;70.00
35700;DHT22;21818;51.078;12.108;2023-04-25T01:54:41;13.90;70.10
35700;DHT22;21818;51.078;12.108;2023-04-25T01:57:09;13.90;70.00
35700;DHT22;21818;51.078;12.108;2023-04-25T01:59:36;13.90;70.30
35700;DHT22;21818;51.078;12.108;2023-04-25T02:02:02;13.80;70.30
35700;DHT22;21818;51.078;12.108;2023-04-25T02:04:29;13.90;70.40
35700;DHT22;21818;51.078;12.108;2023-04-25T02:06:55;13.90;70.40
35700;DHT22;21818;51.078;12.108;2023-04-25T02:09:21;13.90;70.40
35700;DHT22;21818;51.078;12.108;2023-04-25T02:11:46;13.90;70.40
35700;DHT22;21818;51.078;12.108;2023-04-25T02:14:12;13.90;70.30
35700;DHT22;21818;51.078;12.108;2023-04-25T02:16:38;13.80;70.10
35700;DHT22;21818;51.078;12.108;2023-04-25T02:19:05;13.80;70.00
35700;DHT22;21818;51.078;12.108;2023-04-25T02:21:30;13.70;70.00
35700;DHT22;21818;51.078;12.108;2023-04-25T02:23:56;13.70;70.10
35700;DHT22;21818;51.078;12.108;2023-04-25T02:26:22;13.60;70.00
35700;DHT22;21818;51.078;12.108;2023-04-25T02:28:49;13.60;70.10
35700;DHT22;21818;51.078;12.108;2023-04-25T02:31:15;13.60;70.10
35700;DHT22;21818;51.078;12.108;2023-04-25T02:33:41;13.60;70.10
35700;DHT22;21818;51.078;12.108;2023-04-25T02:36:07;13.60;70.10
35700;DHT22;21818;51.078;12.108;2023-04-25T02:38:33;13.60;70.20
35700;DHT22;21818;51.078;12.108;2023-04-25T02:40:58;13.60;70.20
35700;DHT22;21818;51.078;12.108;2023-04-25T02:43:24;13.70;70.00
35700;DHT22;21818;51.078;12.108;2023-04-25T02:45:49;13.70;70.00
35700;DHT22;21818;51.078;12.108;2023-04-25T02:48:15;13.70;70.10
35700;DHT22;21818;51.078;12.108;2023-04-25T02:50:41;13.60;70.20
35700;DHT22;21818;51.078;12.108;2023-04-25T02:53:06;13.60;70.20
35700;DHT22;21818;51.078;12.108;2023-04-25T02:55:32;13.60;70.30
35700;DHT22;21818;51.078;12.108;2023-04-25T02:57:57;13.60;70.20
35700;DHT22;21818;51.078;12.108;2023-04-25T03:00:23;13.60;70.20
35700;DHT22;21818;51.078;12.108;2023-04-25T03:02:49;13.60;70.40
35700;DHT22;21818;51.078;12.108;2023-04-25T03:05:14;13.60;70.10
35700;DHT22;21818;51.078;12.108;2023-04-25T03:07:40;13.60;70.20
35700;DHT22;21818;51.078;12.108;2023-04-25T03:10:07;13.60;70.10
35700;DHT22;21818;51.078;12.108;2023-04-25T03:12:32;13.60;70.20
35700;DHT22;21818;51.078;12.108;2023-04-25T03:14:58;13.60;70.10
35700;DHT22;21818;51.078;12.108;2023-04-25T03:17:23;13.70;70.00
35700;DHT22;21818;51.078;12.108;2023-04-25T03:19:49;13.60;70.00
35700;DHT22;21818;51.078;12.108;2023-04-25T03:22:15;13.60;70.10
35700;DHT22;21818;51.078;12.108;2023-04-25T03:24:40;13.50;70.20
35700;DHT22;21818;51.078;12.108;2023-04-25T03:27:06;13.50;70.40
35700;DHT22;21818;51.078;12.108;2023-04-25T03:29:31;13.50;70.30
35700;DHT22;21818;51.078;12.108;2023-04-25T03:31:57;13.50;70.50
35700;DHT22;21818;51.078;12.108;2023-04-25T03:34:22;13.50;70.40
35700;DHT22;21818;51.078;12.108;2023-04-25T03:36:49;13.50;70.30
35700;DHT22;21818;51.078;12.108;2023-04-25T03:39:15;13.40;70.40
35700;DHT22;21818;51.078;12.108;2023-04-25T03:41:41;13.40;70.70
35700;DHT22;21818;51.078;12.108;2023-04-25T03:44:06;13.30;70.70
35700;DHT22;21818;51.078;12.108;2023-04-25T03:46:32;13.30;70.60
35700;DHT22;21818;51.078;12.108;2023-04-25T03:48:57;13.30;70.70
35700;DHT22;21818;51.078;12.108;2023-04-25T03:51:24;13.20;70.60
35700;DHT22;21818;51.078;12.108;2023-04-25T03:53:51;13.20;70.50
35700;DHT22;21818;51.078;12.108;2023-04-25T03:56:17;13.10;70.60
35700;DHT22;21818;51.078;12.108;2023-04-25T03:58:42;13.10;70.60
35700;DHT22;21818;51.078;12.108;2023-04-25T04:01:08;13.10;70.70
35700;DHT22;21818;51.078;12.108;2023-04-25T04:03:34;13.10;70.60
35700;DHT22;21818;51.078;12.108;2023-04-25T04:06:04;13.00;70.60
35700;DHT22;21818;51.078;12.108;2023-04-25T04:08:31;13.10;70.80
35700;DHT22;21818;51.078;12.108;2023-04-25T04:10:57;13.10;70.70
35700;DHT22;21818;51.078;12.108;2023-04-25T04:13:25;13.10;70.80
35700;DHT22;21818;51.078;12.108;2023-04-25T04:15:51;13.20;70.70
35700;DHT22;21818;51.078;12.108;2023-04-25T04:18:17;13.30;70.60
35700;DHT22;21818;51.078;12.108;2023-04-25T04:20:42;13.30;70.60
35700;DHT22;21818;51.078;12.108;2023-04-25T04:23:08;13.30;70.70
35700;DHT22;21818;51.078;12.108;2023-04-25T04:25:33;13.30;70.60
35700;DHT22;21818;51.078;12.108;2023-04-25T04:27:59;13.40;70.60
35700;DHT22;21818;51.078;12.108;2023-04-25T04:30:26;13.40;70.40
35700;DHT22;21818;51.078;12.108;2023-04-25T04:32:55;13.50;70.10
35700;DHT22;21818;51.078;12.108;2023-04-25T04:35:22;13.50;70.00
35700;DHT22;21818;51.078;12.108;2023-04-25T04:37:47;13.50;70.00
35700;DHT22;21818;51.078;12.108;2023-04-25T04:40:14;13.50;69.90
35700;DHT22;21818;51.078;12.108;2023-04-25T04:42:43;13.50;69.80
35700;DHT22;21818;51.078;12.108;2023-04-25T04:45:11;13.40;69.70
35700;DHT22;21818;51.078;12.108;2023-04-25T04:47:37;13.50;69.70
35700;DHT22;21818;51.078;12.108;2023-04-25T04:50:08;13.40;69.60
35700;DHT22;21818;51.078;12.108;2023-04-25T04:52:35;13.40;69.60
35700;DHT22;21818;51.078;12.108;2023-04-25T04:55:01;13.40;69.60
35700;DHT22;21818;51.078;12.108;2023-04-25T04:57:27;13.40;69.70
35700;DHT22;21818;51.078;12.108;2023-04-25T04:59:53;13.40;69.70
35700;DHT22;21818;51.078;12.108;2023-04-25T05:02:19;13.40;69.60
35700;DHT22;21818;51.078;12.108;2023-04-25T05:04:45;13.40;69.60
35700;DHT22;21818;51.078;12.108;2023-04-25T05:07:11;13.40;69.70
35700;DHT22;21818;51.078;12.108;2023-04-25T05:09:36;13.40;69.70
35700;DHT22;21818;51.078;12.108;2023-04-25T05:12:02;13.40;69.60
35700;DHT22;21818;51.078;12.108;2023-04-25T05:14:29;13.40;69.60
35700;DHT22;21818;51.078;12.108;2023-04-25T05:16:55;13.40;69.60
35700;DHT22;21818;51.078;12.108;2023-04-25T05:19:20;13.50;69.60
35700;DHT22;21818;51.078;12.108;2023-04-25T05:21:46;13.40;69.50
35700;DHT22;21818;51.078;12.108;2023-04-25T05:24:11;13.40;69.70
35700;DHT22;21818;51.078;12.108;2023-04-25T05:26:37;13.40;69.90
35700;DHT22;21818;51.078;12.108;2023-04-25T05:29:03;13.40;69.90
35700;DHT22;21818;51.078;12.108;2023-04-25T05:31:28;13.40;70.00
35700;DHT22;21818;51.078;12.108;2023-04-25T05:33:54;13.50;70.00
35700;DHT22;21818;51.078;12.108;2023-04-25T05:36:20;13.50;69.90
35700;DHT22;21818;51.078;12.108;2023-04-25T05:38:45;13.50;69.90
35700;DHT22;21818;51.078;12.108;2023-04-25T05:41:11;13.50;69.90
35700;DHT22;21818;51.078;12.108;2023-04-25T05:43:37;13.60;69.90
35700;DHT22;21818;51.078;12.108;2023-04-25T05:46:02;13.60;69.80
35700;DHT22;21818;51.078;12.108;2023-04-25T05:48:28;13.60;69.80
35700;DHT22;21818;51.078;12.108;2023-04-25T05:50:53;13.70;70.30
35700;DHT22;21818;51.078;12.108;2023-04-25T05:53:20;13.80;71.50
35700;DHT22;21818;51.078;12.108;2023-04-25T05:55:46;14.00;71.30
35700;DHT22;21818;51.078;12.108;2023-04-25T05:58:12;14.10;71.40
35700;DHT22;21818;51.078;12.108;2023-04-25T06:00:37;14.10;71.20
35700;DHT22;21818;51.078;12.108;2023-04-25T06:03:03;14.10;71.30
35700;DHT22;21818;51.078;12.108;2023-04-25T06:05:29;14.10;71.20
35700;DHT22;21818;51.078;12.108;2023-04-25T06:07:55;14.10;71.10
35700;DHT22;21818;51.078;12.108;2023-04-25T06:10:21;14.10;71.10
35700;DHT22;21818;51.078;12.108;2023-04-25T06:12:47;14.10;70.90
35700;DHT22;21818;51.078;12.108;2023-04-25T06:15:13;14.10;71.00
35700;DHT22;21818;51.078;12.108;2023-04-25T06:17:38;14.10;70.60
35700;DHT22;21818;51.078;12.108;2023-04-25T06:20:05;14.10;70.50
35700;DHT22;21818;51.078;12.108;2023-04-25T06:22:31;14.10;70.50
35700;DHT22;21818;51.078;12.108;2023-04-25T06:24:56;14.10;70.20
35700;DHT22;21818;51.078;12.108;2023-04-25T06:27:24;14.20;70.00
35700;DHT22;21818;51.078;12.108;2023-04-25T06:29:49;14.10;69.80
35700;DHT22;21818;51.078;12.108;2023-04-25T06:32:15;14.10;69.80
35700;DHT22;21818;51.078;12.108;2023-04-25T06:34:40;14.20;69.60
35700;DHT22;21818;51.078;12.108;2023-04-25T06:37:06;14.20;69.20
35700;DHT22;21818;51.078;12.108;2023-04-25T06:39:31;14.30;69.10
35700;DHT22;21818;51.078;12.108;2023-04-25T06:41:57;14.30;68.80
35700;DHT22;21818;51.078;12.108;2023-04-25T06:44:22;14.30;68.60
35700;DHT22;21818;51.078;12.108;2023-04-25T06:46:49;14.30;68.60
35700;DHT22;21818;51.078;12.108;2023-04-25T06:49:15;14.30;68.40
35700;DHT22;21818;51.078;12.108;2023-04-25T06:51:40;14.30;68.20
35700;DHT22;21818;51.078;12.108;2023-04-25T06:54:06;14.30;68.20
35700;DHT22;21818;51.078;12.108;2023-04-25T06:56:32;14.30;68.20
35700;DHT22;21818;51.078;12.108;2023-04-25T06:58:57;14.40;68.10
35700;DHT22;21818;51.078;12.108;2023-04-25T07:01:23;14.40;67.80
35700;DHT22;21818;51.078;12.108;2023-04-25T07:03:48;14.40;67.70
35700;DHT22;21818;51.078;12.108;2023-04-25T07:06:14;14.40;67.60
35700;DHT22;21818;51.078;12.108;2023-04-25T07:08:40;14.40;67.40
35700;DHT22;21818;51.078;12.108;2023-04-25T07:11:05;14.40;67.40
35700;DHT22;21818;51.078;12.108;2023-04-25T07:13:31;14.50;67.30
35700;DHT22;21818;51.078;12.108;2023-04-25T07:15:56;14.50;67.20
35700;DHT22;21818;51.078;12.108;2023-04-25T07:18:22;14.50;67.20
35700;DHT22;21818;51.078;12.108;2023-04-25T07:20:47;14.50;67.10
35700;DHT22;21818;51.078;12.108;2023-04-25T07:23:13;14.50;67.00
35700;DHT22;21818;51.078;12.108;2023-04-25T07:25:39;14.50;67.00
35700;DHT22;21818;51.078;12.108;2023-04-25T07:28:04;14.50;66.90
35700;DHT22;21818;51.078;12.108;2023-04-25T07:30:30;14.40;66.90
35700;DHT22;21818;51.078;12.108;2023-04-25T07:32:56;14.40;66.90
35700;DHT22;21818;51.078;12.108;2023-04-25T07:35:22;14.40;66.80
35700;DHT22;21818;51.078;12.108;2023-04-25T07:37:47;14.40;66.80
35700;DHT22;21818;51.078;12.108;2023-04-25T07:40:13;14.40;66.60
35700;DHT22;21818;51.078;12.108;2023-04-25T07:42:41;14.40;66.70
35700;DHT22;21818;51.078;12.108;2023-04-25T07:45:06;14.30;66.60
35700;DHT22;21818;51.078;12.108;2023-04-25T07:47:32;14.30;66.60
35700;DHT22;21818;51.078;12.108;2023-04-25T07:49:58;14.30;66.60
35700;DHT22;21818;51.078;12.108;2023-04-25T07:52:23;14.30;66.60
35700;DHT22;21818;51.078;12.108;2023-04-25T07:54:49;14.30;66.50
35700;DHT22;21818;51.078;12.108;2023-04-25T07:57:15;14.30;66.30
35700;DHT22;21818;51.078;12.108;2023-04-25T07:59:42;14.30;66.40
35700;DHT22;21818;51.078;12.108;2023-04-25T08:02:07;14.40;66.40
35700;DHT22;21818;51.078;12.108;2023-04-25T08:04:33;14.30;66.20
35700;DHT22;21818;51.078;12.108;2023-04-25T08:06:59;14.40;66.30
35700;DHT22;21818;51.078;12.108;2023-04-25T08:09:25;14.40;66.20
35700;DHT22;21818;51.078;12.108;2023-04-25T08:11:50;14.30;66.30
35700;DHT22;21818;51.078;12.108;2023-04-25T08:14:16;14.30;66.30
35700;DHT22;21818;51.078;12.108;2023-04-25T08:16:41;14.30;66.30
35700;DHT22;21818;51.078;12.108;2023-04-25T08:19:07;14.30;66.30
35700;DHT22;21818;51.078;12.108;2023-04-25T08:24:00;14.30;66.20
35700;DHT22;21818;51.078;12.108;2023-04-25T08:26:27;14.20;66.20
35700;DHT22;21818;51.078;12.108;2023-04-25T08:28:53;14.30;66.20
35700;DHT22;21818;51.078;12.108;2023-04-25T08:31:18;14.30;66.80
35700;DHT22;21818;51.078;12.108;2023-04-25T08:33:44;14.30;66.30
35700;DHT22;21818;51.078;12.108;2023-04-25T08:36:10;14.20;66.30
35700;DHT22;21818;51.078;12.108;2023-04-25T08:38:36;14.20;66.40
35700;DHT22;21818;51.078;12.108;2023-04-25T08:41:02;14.20;66.40
35700;DHT22;21818;51.078;12.108;2023-04-25T08:43:29;14.20;66.60
35700;DHT22;21818;51.078;12.108;2023-04-25T08:45:59;14.10;66.50
35700;DHT22;21818;51.078;12.108;2023-04-25T08:48:27;14.20;66.50
35700;DHT22;21818;51.078;12.108;2023-04-25T08:50:55;14.20;66.50
35700;DHT22;21818;51.078;12.108;2023-04-25T08:53:28;14.20;66.50
35700;DHT22;21818;51.078;12.108;2023-04-25T08:55:55;14.20;66.50
35700;DHT22;21818;51.078;12.108;2023-04-25T08:58:21;14.20;66.60
35700;DHT22;21818;51.078;12.108;2023-04-25T09:00:48;14.20;66.50
35700;DHT22;21818;51.078;12.108;2023-04-25T09:03:15;14.30;66.40
35700;DHT22;21818;51.078;12.108;2023-04-25T09:05:41;14.30;66.40
35700;DHT22;21818;51.078;12.108;2023-04-25T09:08:07;14.30;66.40
35700;DHT22;21818;51.078;12.108;2023-04-25T09:10:34;14.20;66.30
35700;DHT22;21818;51.078;12.108;2023-04-25T09:13:07;14.20;66.50
35700;DHT22;21818;51.078;12.108;2023-04-25T09:15:51;14.20;66.40
35700;DHT22;21818;51.078;12.108;2023-04-25T09:18:27;14.30;66.30
35700;DHT22;21818;51.078;12.108;2023-04-25T09:20:56;14.20;66.30
35700;DHT22;21818;51.078;12.108;2023-04-25T09:23:23;14.20;66.30
35700;DHT22;21818;51.078;12.108;2023-04-25T09:25:51;14.20;66.30
35700;DHT22;21818;51.078;12.108;2023-04-25T09:28:23;14.20;66.30
35700;DHT22;21818;51.078;12.108;2023-04-25T09:30:54;14.20;66.30
35700;DHT22;21818;51.078;12.108;2023-04-25T09:33:20;14.20;66.40
35700;DHT22;21818;51.078;12.108;2023-04-25T09:35:51;14.20;66.50
35700;DHT22;21818;51.078;12.108;2023-04-25T09:38:20;14.20;66.70
35700;DHT22;21818;51.078;12.108;2023-04-25T09:40:47;14.20;66.60
35700;DHT22;21818;51.078;12.108;2023-04-25T09:43:21;14.20;66.60
35700;DHT22;21818;51.078;12.108;2023-04-25T09:45:48;14.20;66.60
35700;DHT22;21818;51.078;12.108;2023-04-25T09:48:24;14.20;66.70
35700;DHT22;21818;51.078;12.108;2023-04-25T09:51:10;14.20;66.70
35700;DHT22;21818;51.078;12.108;2023-04-25T09:53:37;14.20;66.60
35700;DHT22;21818;51.078;12.108;2023-04-25T09:56:05;14.30;66.70
35700;DHT22;21818;51.078;12.108;2023-04-25T09:58:32;14.30;66.60
35700;DHT22;21818;51.078;12.108;2023-04-25T10:01:00;14.40;66.60
35700;DHT22;21818;51.078;12.108;2023-04-25T10:03:29;14.30;66.60
35700;DHT22;21818;51.078;12.108;2023-04-25T10:05:59;14.30;66.60
35700;DHT22;21818;51.078;12.108;2023-04-25T10:08:27;14.40;66.40
35700;DHT22;21818;51.078;12.108;2023-04-25T10:10:54;14.40;66.30
35700;DHT22;21818;51.078;12.108;2023-04-25T10:13:20;14.40;66.30
35700;DHT22;21818;51.078;12.108;2023-04-25T10:15:47;14.40;66.20
35700;DHT22;21818;51.078;12.108;2023-04-25T10:18:13;14.40;66.00
35700;DHT22;21818;51.078;12.108;2023-04-25T10:20:38;14.40;66.00
35700;DHT22;21818;51.078;12.108;2023-04-25T10:23:15;14.40;66.00
35700;DHT22;21818;51.078;12.108;2023-04-25T10:25:42;14.30;65.90
35700;DHT22;21818;51.078;12.108;2023-04-25T10:28:08;14.30;65.90
35700;DHT22;21818;51.078;12.108;2023-04-25T10:30:34;14.30;66.00
35700;DHT22;21818;51.078;12.108;2023-04-25T10:32:59;14.20;66.60
35700;DHT22;21818;51.078;12.108;2023-04-25T10:35:28;14.20;66.20
35700;DHT22;21818;51.078;12.108;2023-04-25T10:38:03;14.20;66.30
35700;DHT22;21818;51.078;12.108;2023-04-25T10:40:30;14.20;66.40
35700;DHT22;21818;51.078;12.108;2023-04-25T10:45:59;14.20;66.70
35700;DHT22;21818;51.078;12.108;2023-04-25T10:48:27;14.20;66.70
35700;DHT22;21818;51.078;12.108;2023-04-25T10:51:14;14.20;66.90
35700;DHT22;21818;51.078;12.108;2023-04-25T10:53:41;14.10;67.20
35700;DHT22;21818;51.078;12.108;2023-04-25T10:56:21;14.10;67.30
35700;DHT22;21818;51.078;12.108;2023-04-25T10:58:48;14.10;67.40
35700;DHT22;21818;51.078;12.108;2023-04-25T11:01:19;14.10;67.80
35700;DHT22;21818;51.078;12.108;2023-04-25T11:03:44;14.10;67.50
35700;DHT22;21818;51.078;12.108;2023-04-25T11:06:27;14.00;67.70
35700;DHT22;21818;51.078;12.108;2023-04-25T11:08:55;14.10;68.00
35700;DHT22;21818;51.078;12.108;2023-04-25T11:11:20;14.10;67.90
35700;DHT22;21818;51.078;12.108;2023-04-25T11:13:49;14.20;67.90
35700;DHT22;21818;51.078;12.108;2023-04-25T11:16:16;14.20;67.80
35700;DHT22;21818;51.078;12.108;2023-04-25T11:18:43;14.30;67.80
35700;DHT22;21818;51.078;12.108;2023-04-25T11:21:09;14.30;67.70
35700;DHT22;21818;51.078;12.108;2023-04-25T11:23:35;14.30;67.80
35700;DHT22;21818;51.078;12.108;2023-04-25T11:26:00;14.40;67.90
35700;DHT22;21818;51.078;12.108;2023-04-25T11:28:27;14.50;67.80
35700;DHT22;21818;51.078;12.108;2023-04-25T11:30:52;14.50;67.50
35700;DHT22;21818;51.078;12.108;2023-04-25T11:33:23;14.60;68.00
35700;DHT22;21818;51.078;12.108;2023-04-25T11:35:49;14.70;67.30
35700;DHT22;21818;51.078;12.108;2023-04-25T11:38:15;14.80;67.30
35700;DHT22;21818;51.078;12.108;2023-04-25T11:40:40;14.80;67.50
35700;DHT22;21818;51.078;12.108;2023-04-25T11:43:06;14.80;67.40
35700;DHT22;21818;51.078;12.108;2023-04-25T11:45:32;14.90;67.60
35700;DHT22;21818;51.078;12.108;2023-04-25T11:47:58;14.90;67.40
35700;DHT22;21818;51.078;12.108;2023-04-25T11:50:23;14.90;67.20
35700;DHT22;21818;51.078;12.108;2023-04-25T11:52:49;14.90;67.30
35700;DHT22;21818;51.078;12.108;2023-04-25T11:55:19;14.90;67.30
35700;DHT22;21818;51.078;12.108;2023-04-25T11:57:48;14.90;67.40
35700;DHT22;21818;51.078;12.108;2023-04-25T12:00:18;14.90;67.40
35700;DHT22;21818;51.078;12.108;2023-04-25T12:02:51;14.90;67.40
35700;DHT22;21818;51.078;12.108;2023-04-25T12:05:16;14.90;67.20
35700;DHT22;21818;51.078;12.108;2023-04-25T12:07:42;15.00;67.20
35700;DHT22;21818;51.078;12.108;2023-04-25T12:10:13;15.00;67.20
35700;DHT22;21818;51.078;12.108;2023-04-25T12:12:43;15.00;67.00
35700;DHT22;21818;51.078;12.108;2023-04-25T12:15:13;15.00;67.10
35700;DHT22;21818;51.078;12.108;2023-04-25T12:17:51;15.10;67.00
35700;DHT22;21818;51.078;12.108;2023-04-25T12:20:20;15.10;66.90
35700;DHT22;21818;51.078;12.108;2023-04-25T12:22:48;15.10;66.90
35700;DHT22;21818;51.078;12.108;2023-04-25T12:25:40;15.10;66.70
35700;DHT22;21818;51.078;12.108;2023-04-25T12:28:17;15.20;66.70
35700;DHT22;21818;51.078;12.108;2023-04-25T12:31:00;15.30;66.70
35700;DHT22;21818;51.078;12.108;2023-04-25T12:35:57;15.30;66.60
35700;DHT22;21818;51.078;12.108;2023-04-25T12:38:27;15.40;66.30
35700;DHT22;21818;51.078;12.108;2023-04-25T12:40:54;15.80;65.90
35700;DHT22;21818;51.078;12.108;2023-04-25T12:43:20;16.10;65.10
35700;DHT22;21818;51.078;12.108;2023-04-25T12:45:50;16.40;64.60
35700;DHT22;21818;51.078;12.108;2023-04-25T12:48:16;16.70;64.00
35700;DHT22;21818;51.078;12.108;2023-04-25T12:50:42;16.90;63.30
35700;DHT22;21818;51.078;12.108;2023-04-25T12:53:08;16.80;62.90
35700;DHT22;21818;51.078;12.108;2023-04-25T12:55:34;16.60;63.00
35700;DHT22;21818;51.078;12.108;2023-04-25T12:58:00;16.40;63.10
35700;DHT22;21818;51.078;12.108;2023-04-25T13:00:26;16.20;63.10
35700;DHT22;21818;51.078;12.108;2023-04-25T13:02:52;16.10;63.20
35700;DHT22;21818;51.078;12.108;2023-04-25T13:05:17;15.90;63.10
35700;DHT22;21818;51.078;12.108;2023-04-25T13:07:43;15.80;62.80
35700;DHT22;21818;51.078;12.108;2023-04-25T13:10:09;15.60;62.60
35700;DHT22;21818;51.078;12.108;2023-04-25T13:12:34;15.50;62.50
35700;DHT22;21818;51.078;12.108;2023-04-25T13:15:00;15.40;62.30
35700;DHT22;21818;51.078;12.108;2023-04-25T13:17:25;15.30;61.90
35700;DHT22;21818;51.078;12.108;2023-04-25T13:19:51;15.20;61.80
35700;DHT22;21818;51.078;12.108;2023-04-25T13:22:17;15.10;61.80
35700;DHT22;21818;51.078;12.108;2023-04-25T13:24:44;15.00;61.60
35700;DHT22;21818;51.078;12.108;2023-04-25T13:27:10;14.90;61.60
35700;DHT22;21818;51.078;12.108;2023-04-25T13:29:35;14.90;61.40
35700;DHT22;21818;51.078;12.108;2023-04-25T13:32:03;14.90;61.20
35700;DHT22;21818;51.078;12.108;2023-04-25T13:34:29;14.90;61.10
35700;DHT22;21818;51.078;12.108;2023-04-25T13:36:55;14.80;60.60
35700;DHT22;21818;51.078;12.108;2023-04-25T13:39:20;14.90;60.40
35700;DHT22;21818;51.078;12.108;2023-04-25T13:41:46;14.90;60.00
35700;DHT22;21818;51.078;12.108;2023-04-25T13:44:11;14.90;59.80
35700;DHT22;21818;51.078;12.108;2023-04-25T13:46:37;14.90;59.60
35700;DHT22;21818;51.078;12.108;2023-04-25T13:49:06;15.00;59.50
35700;DHT22;21818;51.078;12.108;2023-04-25T13:51:31;15.10;59.20
35700;DHT22;21818;51.078;12.108;2023-04-25T13:53:57;15.10;59.00
35700;DHT22;21818;51.078;12.108;2023-04-25T13:56:23;15.10;58.60
35700;DHT22;21818;51.078;12.108;2023-04-25T13:58:50;15.20;58.60
35700;DHT22;21818;51.078;12.108;2023-04-25T14:01:17;15.30;58.30
35700;DHT22;21818;51.078;12.108;2023-04-25T14:03:42;15.30;58.10
35700;DHT22;21818;51.078;12.108;2023-04-25T14:06:08;15.40;58.10
35700;DHT22;21818;51.078;12.108;2023-04-25T14:08:34;15.40;58.00
35700;DHT22;21818;51.078;12.108;2023-04-25T14:10:59;15.40;57.90
35700;DHT22;21818;51.078;12.108;2023-04-25T14:13:26;15.40;57.90
35700;DHT22;21818;51.078;12.108;2023-04-25T14:15:51;15.30;57.90
35700;DHT22;21818;51.078;12.108;2023-04-25T14:18:17;15.30;57.90
35700;DHT22;21818;51.078;12.108;2023-04-25T14:20:43;15.20;57.70
35700;DHT22;21818;51.078;12.108;2023-04-25T14:23:08;15.20;57.70
35700;DHT22;21818;51.078;12.108;2023-04-25T14:25:34;15.20;57.60
35700;DHT22;21818;51.078;12.108;2023-04-25T14:28:01;15.20;57.40
35700;DHT22;21818;51.078;12.108;2023-04-25T14:30:27;15.10;57.10
35700;DHT22;21818;51.078;12.108;2023-04-25T14:32:53;15.10;57.00
35700;DHT22;21818;51.078;12.108;2023-04-25T14:35:19;15.10;56.90
35700;DHT22;21818;51.078;12.108;2023-04-25T14:37:45;15.20;56.80
35700;DHT22;21818;51.078;12.108;2023-04-25T14:40:11;15.30;56.50
35700;DHT22;21818;51.078;12.108;2023-04-25T14:42:39;15.30;56.40
35700;DHT22;21818;51.078;12.108;2023-04-25T14:45:06;15.30;56.20
35700;DHT22;21818;51.078;12.108;2023-04-25T14:47:32;15.30;56.10
35700;DHT22;21818;51.078;12.108;2023-04-25T14:49:58;15.30;56.00
35700;DHT22;21818;51.078;12.108;2023-04-25T14:52:24;15.30;55.90
35700;DHT22;21818;51.078;12.108;2023-04-25T14:54:51;15.20;55.70
35700;DHT22;21818;51.078;12.108;2023-04-25T14:57:16;15.10;55.70
35700;DHT22;21818;51.078;12.108;2023-04-25T14:59:42;15.10;55.80
35700;DHT22;21818;51.078;12.108;2023-04-25T15:02:07;15.10;55.60
35700;DHT22;21818;51.078;12.108;2023-04-25T15:04:33;15.10;55.50
35700;DHT22;21818;51.078;12.108;2023-04-25T15:06:59;15.10;55.50
35700;DHT22;21818;51.078;12.108;2023-04-25T15:09:24;15.10;55.50
35700;DHT22;21818;51.078;12.108;2023-04-25T15:11:50;15.00;55.50
35700;DHT22;21818;51.078;12.108;2023-04-25T15:14:17;15.10;55.50
35700;DHT22;21818;51.078;12.108;2023-04-25T15:16:43;15.10;55.30
35700;DHT22;21818;51.078;12.108;2023-04-25T15:19:09;15.10;55.20
35700;DHT22;21818;51.078;12.108;2023-04-25T15:21:35;15.10;55.00